createdAt,value
2019-05-21T00:01:02.772Z,94726.82
2019-05-21T00:03:35.537Z,94731.11
2019-05-21T00:06:08.217Z,94729.05
2019-05-21T00:08:40.909Z,94734.97
2019-05-21T00:11:13.626Z,94727.58
2019-05-21T00:13:46.312Z,94741.75
2019-05-21T00:16:19.092Z,94743.38
2019-05-21T00:18:51.951Z,94747.18
2019-05-21T00:21:24.295Z,94740.66
2019-05-21T00:23:57.195Z,94747.01
2019-05-21T00:26:29.901Z,94749.13
2019-05-21T00:29:55.383Z,94755.37
2019-05-21T00:33:21.259Z,94746.13
2019-05-21T00:36:48.820Z,94742.51
2019-05-21T00:40:14.379Z,94746.34
2019-05-21T00:42:47.524Z,94743.98
2019-05-21T00:45:20.239Z,94743.17
2019-05-21T00:47:52.864Z,94753.00
2019-05-21T00:50:25.550Z,94758.43
2019-05-21T00:52:58.328Z,94757.97
2019-05-21T00:55:31.015Z,94751.63
2019-05-21T00:58:03.577Z,94760.36
2019-05-21T01:00:35.617Z,94760.28
2019-05-21T01:03:08.335Z,94765.29
2019-05-21T01:05:41.021Z,94759.47
2019-05-21T01:08:13.617Z,94763.80
2019-05-21T01:10:46.362Z,94766.98
2019-05-21T01:13:18.989Z,94762.19
2019-05-21T01:15:51.614Z,94765.31
2019-05-21T01:18:24.361Z,94757.39
2019-05-21T01:20:57.270Z,94767.61
2019-05-21T01:23:29.894Z,94766.17
2019-05-21T01:26:05.570Z,94765.00
2019-05-21T01:28:38.213Z,94779.23
2019-05-21T01:31:10.856Z,94781.14
2019-05-21T01:33:43.758Z,94778.72
2019-05-21T01:36:16.470Z,94774.91
2019-05-21T01:38:49.040Z,94777.20
2019-05-21T01:41:21.644Z,94775.72
2019-05-21T01:43:54.271Z,94776.34
2019-05-21T01:46:26.998Z,94770.78
2019-05-21T01:48:59.542Z,94773.81
2019-05-21T01:51:32.256Z,94777.64
2019-05-21T01:54:04.873Z,94771.64
2019-05-21T01:56:37.489Z,94771.85
2019-05-21T01:59:10.721Z,94768.53
2019-05-21T02:01:43.366Z,94763.69
2019-05-21T02:04:15.943Z,94764.81
2019-05-21T02:06:49.391Z,94764.53
2019-05-21T02:09:22.303Z,94767.67
2019-05-21T02:11:54.996Z,94757.14
2019-05-21T02:14:27.595Z,94758.65
2019-05-21T02:17:00.168Z,94752.92
2019-05-21T02:19:32.808Z,94753.12
2019-05-21T02:22:05.561Z,94745.55
2019-05-21T02:24:38.119Z,94743.62
2019-05-21T02:27:10.899Z,94742.13
2019-05-21T02:29:43.450Z,94744.03
2019-05-21T02:32:16.214Z,94747.34
2019-05-21T02:34:48.914Z,94750.05
2019-05-21T02:37:20.813Z,94752.13
2019-05-21T02:39:53.440Z,94750.23
2019-05-21T02:42:26.144Z,94752.27
2019-05-21T02:44:58.861Z,94754.14
2019-05-21T02:47:31.560Z,94747.55
2019-05-21T02:50:04.338Z,94751.64
2019-05-21T02:52:37.104Z,94758.44
2019-05-21T02:55:11.691Z,94756.55
2019-05-21T02:57:44.502Z,94766.45
2019-05-21T03:00:38.685Z,94763.04
2019-05-21T03:03:10.069Z,94763.84
2019-05-21T03:05:42.831Z,94761.95
2019-05-21T03:08:15.627Z,94763.14
2019-05-21T03:10:48.339Z,94761.81
2019-05-21T03:13:21.079Z,94767.47
2019-05-21T03:15:53.818Z,94764.44
2019-05-21T03:18:26.571Z,94761.67
2019-05-21T03:20:59.182Z,94768.67
2019-05-21T03:23:32.157Z,94765.58
2019-05-21T03:26:04.899Z,94763.27
2019-05-21T03:28:37.594Z,94757.87
2019-05-21T03:31:10.320Z,94760.97
2019-05-21T03:33:43.031Z,94756.95
2019-05-21T03:36:31.941Z,94758.05
2019-05-21T03:38:50.374Z,94762.48
2019-05-21T03:41:23.183Z,94762.74
2019-05-21T03:43:55.967Z,94761.95
2019-05-21T03:46:28.856Z,94762.88
2019-05-21T03:49:01.428Z,94772.77
2019-05-21T03:51:34.383Z,94770.48
2019-05-21T03:54:07.102Z,94767.38
2019-05-21T03:56:40.034Z,94772.07
2019-05-21T03:59:12.755Z,94773.98
2019-05-21T04:01:45.500Z,94776.69
2019-05-21T04:04:18.219Z,94778.77
2019-05-21T04:06:52.539Z,94772.55
2019-05-21T04:09:25.531Z,94773.67
2019-05-21T04:11:58.356Z,94770.57
2019-05-21T04:14:33.797Z,94776.07
2019-05-21T04:17:13.425Z,94774.95
2019-05-21T04:19:46.203Z,94782.73
2019-05-21T04:22:19.212Z,94791.48
2019-05-21T04:24:51.925Z,94792.89
2019-05-21T04:27:24.570Z,94782.88
2019-05-21T04:29:57.220Z,94789.58
2019-05-21T04:32:29.880Z,94781.77
2019-05-21T04:35:02.564Z,94785.77
2019-05-21T04:37:35.327Z,94787.57
2019-05-21T04:40:08.379Z,94791.08
2019-05-21T04:42:41.117Z,94786.97
2019-05-21T04:45:14.324Z,94791.28
2019-05-21T04:47:46.974Z,94797.06
2019-05-21T04:50:19.567Z,94788.28
2019-05-21T04:52:52.214Z,94790.96
2019-05-21T04:55:25.003Z,94795.03
2019-05-21T04:57:57.626Z,94792.45
2019-05-21T05:00:30.326Z,94794.25
2019-05-21T05:03:02.959Z,94792.61
2019-05-21T05:05:35.631Z,94797.56
2019-05-21T05:08:08.467Z,94799.47
2019-05-21T05:10:41.110Z,94808.98
2019-05-21T05:13:13.879Z,94806.69
2019-05-21T05:15:46.606Z,94803.69
2019-05-21T05:18:19.219Z,94812.50
2019-05-21T05:20:51.847Z,94813.39
2019-05-21T05:23:24.422Z,94815.00
2019-05-21T05:25:57.132Z,94817.37
2019-05-21T05:28:29.863Z,94822.88
2019-05-21T05:31:02.489Z,94819.70
2019-05-21T05:33:35.113Z,94826.33
2019-05-21T05:36:07.768Z,94826.01
2019-05-21T05:38:40.622Z,94819.75
2019-05-21T05:41:13.309Z,94819.20
2019-05-21T05:43:45.938Z,94828.67
2019-05-21T05:46:18.777Z,94832.19
2019-05-21T05:48:56.966Z,94833.21
2019-05-21T05:51:29.703Z,94829.28
2019-05-21T05:54:02.418Z,94834.98
2019-05-21T05:56:35.148Z,94848.14
2019-05-21T05:59:07.955Z,94849.02
2019-05-21T06:01:40.738Z,94836.08
2019-05-21T06:04:13.362Z,94848.42
2019-05-21T06:06:46.013Z,94849.63
2019-05-21T06:09:18.959Z,94853.61
2019-05-21T06:11:51.701Z,94863.06
2019-05-21T06:14:24.453Z,94850.09
2019-05-21T06:16:57.282Z,94851.39
2019-05-21T06:19:30.143Z,94854.45
2019-05-21T06:22:02.873Z,94855.97
2019-05-21T06:24:35.589Z,94856.61
2019-05-21T06:27:08.320Z,94849.45
2019-05-21T06:29:40.946Z,94848.12
2019-05-21T06:32:13.615Z,94848.75
2019-05-21T06:34:48.610Z,94849.88
2019-05-21T06:37:20.791Z,94856.83
2019-05-21T06:39:53.450Z,94855.27
2019-05-21T06:42:26.071Z,94853.97
2019-05-21T06:44:58.783Z,94865.65
2019-05-21T06:47:31.618Z,94866.17
2019-05-21T06:50:05.075Z,94870.80
2019-05-21T06:52:39.236Z,94876.36
2019-05-21T06:55:12.719Z,94887.53
2019-05-21T06:57:45.441Z,94883.82
2019-05-21T07:00:18.939Z,94891.65
2019-05-21T07:02:51.684Z,94884.05
2019-05-21T07:05:24.430Z,94885.15
2019-05-21T07:07:57.109Z,94882.05
2019-05-21T07:10:29.941Z,94890.12
2019-05-21T07:13:02.732Z,94890.08
2019-05-21T07:15:35.505Z,94895.09
2019-05-21T07:18:08.505Z,94889.66
2019-05-21T07:20:41.361Z,94898.39
2019-05-21T07:23:14.215Z,94892.59
2019-05-21T07:25:47.224Z,94898.44
2019-05-21T07:28:20.071Z,94900.67
2019-05-21T07:30:52.811Z,94903.94
2019-05-21T07:33:25.633Z,94901.91
2019-05-21T07:35:58.355Z,94905.55
2019-05-21T07:38:30.835Z,94904.97
2019-05-21T07:41:03.607Z,94904.63
2019-05-21T07:43:36.292Z,94910.25
2019-05-21T07:46:10.864Z,94914.88
2019-05-21T07:48:43.633Z,94909.91
2019-05-21T07:51:16.372Z,94918.53
2019-05-21T07:53:48.640Z,94916.39
2019-05-21T07:56:21.515Z,94918.78
2019-05-21T07:58:56.088Z,94925.55
2019-05-21T08:01:29.197Z,94921.66
2019-05-21T08:04:02.863Z,94928.30
2019-05-21T08:06:35.647Z,94933.00
2019-05-21T08:09:14.506Z,94923.94
2019-05-21T08:11:46.445Z,94931.00
2019-05-21T08:14:17.504Z,94939.87
2019-05-21T08:16:50.269Z,94941.44
2019-05-21T08:19:23.072Z,94946.78
2019-05-21T08:21:55.806Z,94957.62
2019-05-21T08:24:28.694Z,94950.69
2019-05-21T08:27:01.470Z,94953.02
2019-05-21T08:29:34.167Z,94963.30
2019-05-21T08:32:07.100Z,94963.05
2019-05-21T08:34:39.848Z,94960.33
2019-05-21T08:37:12.622Z,94964.58
2019-05-21T08:39:45.336Z,94964.63
2019-05-21T08:42:18.276Z,94967.95
2019-05-21T08:44:50.603Z,94968.12
2019-05-21T08:47:23.378Z,94971.61
2019-05-21T08:49:56.184Z,94979.55
2019-05-21T08:52:29.001Z,94973.03
2019-05-21T08:55:01.716Z,94977.39
2019-05-21T08:57:34.463Z,94989.38
2019-05-21T09:00:12.086Z,94989.23
2019-05-21T09:02:44.773Z,94989.83
2019-05-21T09:05:17.635Z,94986.92
2019-05-21T09:07:53.555Z,94993.66
2019-05-21T09:10:24.971Z,94993.47
2019-05-21T09:12:58.465Z,95007.25
2019-05-21T09:15:31.174Z,95002.52
2019-05-21T09:18:03.835Z,94998.79
2019-05-21T09:20:36.531Z,94995.41
2019-05-21T09:23:09.295Z,94993.81
2019-05-21T09:25:42.007Z,94993.70
2019-05-21T09:28:14.785Z,94992.09
2019-05-21T09:30:47.672Z,94985.42
2019-05-21T09:33:20.397Z,94980.78
2019-05-21T09:35:53.176Z,94983.80
2019-05-21T09:38:28.905Z,94988.84
2019-05-21T09:41:01.677Z,94988.82
2019-05-21T09:43:34.464Z,94989.75
2019-05-21T09:46:07.367Z,95004.34
2019-05-21T09:48:40.125Z,95003.20
2019-05-21T09:51:19.874Z,95004.25
2019-05-21T09:53:47.364Z,95014.45
2019-05-21T09:56:36.153Z,95009.75
2019-05-21T09:59:16.600Z,95009.84
2019-05-21T10:01:51.020Z,95007.34
2019-05-21T10:04:23.783Z,95013.52
2019-05-21T10:06:56.522Z,95017.66
2019-05-21T10:09:29.263Z,95015.69
2019-05-21T10:12:02.159Z,95025.65
2019-05-21T10:14:35.012Z,95017.15
2019-05-21T10:17:07.972Z,95026.03
2019-05-21T10:19:40.688Z,95021.16
2019-05-21T10:22:13.490Z,95016.43
2019-05-21T10:24:46.241Z,95028.44
2019-05-21T10:27:18.987Z,95026.67
2019-05-21T10:29:51.763Z,95016.52
2019-05-21T10:32:24.484Z,95026.70
2019-05-21T10:34:57.276Z,95023.03
2019-05-21T10:37:30.141Z,95025.46
2019-05-21T10:40:03.359Z,95026.05
2019-05-21T10:42:36.081Z,95036.93
2019-05-21T10:45:09.457Z,95026.20
2019-05-21T10:47:41.530Z,95028.74
2019-05-21T10:50:14.849Z,95025.45
2019-05-21T10:52:47.712Z,95020.61
2019-05-21T10:55:20.541Z,95015.70
2019-05-21T10:57:53.349Z,95029.02
2019-05-21T11:00:27.785Z,95026.96
2019-05-21T11:03:05.875Z,95026.91
2019-05-21T11:05:40.950Z,95027.21
2019-05-21T11:08:23.488Z,95028.34
2019-05-21T11:10:48.083Z,95032.91
2019-05-21T11:13:21.025Z,95030.38
2019-05-21T11:15:53.723Z,95040.63
2019-05-21T11:18:26.513Z,95047.04
2019-05-21T11:20:59.284Z,95041.13
2019-05-21T11:23:32.109Z,95040.80
2019-05-21T11:26:05.687Z,95042.23
2019-05-21T11:28:38.667Z,95036.39
2019-05-21T11:31:11.478Z,95033.91
2019-05-21T11:33:44.168Z,95038.67
2019-05-21T11:36:16.833Z,95035.24
2019-05-21T11:38:49.631Z,95043.48
2019-05-21T11:41:22.528Z,95048.70
2019-05-21T11:43:55.361Z,95044.55
2019-05-21T11:46:28.160Z,95046.72
2019-05-21T11:49:01.003Z,95045.86
2019-05-21T11:51:33.946Z,95039.89
2019-05-21T11:54:06.958Z,95048.59
2019-05-21T11:56:39.762Z,95043.41
2019-05-21T11:59:12.572Z,95045.59
2019-05-21T12:01:45.391Z,95043.57
2019-05-21T12:04:18.262Z,95048.83
2019-05-21T12:06:51.290Z,95040.55
2019-05-21T12:09:24.083Z,95041.95
2019-05-21T12:11:56.785Z,95042.64
2019-05-21T12:14:29.544Z,95039.77
2019-05-21T12:17:02.433Z,95041.78
2019-05-21T12:19:35.155Z,95048.34
2019-05-21T12:22:07.953Z,95043.80
2019-05-21T12:24:40.746Z,95041.69
2019-05-21T12:27:13.672Z,95042.37
2019-05-21T12:29:49.071Z,95051.82
2019-05-21T12:32:21.955Z,95044.05
2019-05-21T12:34:54.698Z,95041.52
2019-05-21T12:37:27.404Z,95045.59
2019-05-21T12:40:00.130Z,95039.74
2019-05-21T12:42:32.875Z,95044.52
2019-05-21T12:45:09.568Z,95054.69
2019-05-21T12:47:42.459Z,95048.53
2019-05-21T12:50:16.057Z,95051.04
2019-05-21T12:52:48.798Z,95049.22
2019-05-21T12:55:21.600Z,95044.23
2019-05-21T12:57:54.371Z,95052.89
2019-05-21T13:00:33.623Z,95053.95
2019-05-21T13:03:06.563Z,95048.50
2019-05-21T13:05:39.338Z,95056.83
2019-05-21T13:08:12.292Z,95051.98
2019-05-21T13:10:45.327Z,95059.38
2019-05-21T13:13:18.152Z,95053.59
2019-05-21T13:15:51.044Z,95052.56
2019-05-21T13:18:23.793Z,95057.93
2019-05-21T13:20:56.603Z,95059.11
2019-05-21T13:23:29.469Z,95057.66
2019-05-21T13:26:02.183Z,95062.35
2019-05-21T13:28:34.865Z,95065.25
2019-05-21T13:31:07.853Z,95063.84
2019-05-21T13:33:40.640Z,95057.11
2019-05-21T13:36:13.436Z,95058.38
2019-05-21T13:38:46.173Z,95061.34
2019-05-21T13:41:19.664Z,95052.08
2019-05-21T13:43:52.414Z,95060.80
2019-05-21T13:46:25.410Z,95058.62
2019-05-21T13:48:58.088Z,95066.16
2019-05-21T13:51:30.899Z,95061.24
2019-05-21T13:54:03.676Z,95065.79
2019-05-21T13:56:36.524Z,95071.04
2019-05-21T13:59:09.447Z,95065.10
2019-05-21T14:01:42.204Z,95064.58
2019-05-21T14:04:16.145Z,95066.25
2019-05-21T14:06:48.968Z,95070.30
2019-05-21T14:09:22.120Z,95072.13
2019-05-21T14:11:55.041Z,95069.92
2019-05-21T14:14:27.832Z,95070.81
2019-05-21T14:17:00.582Z,95078.28
2019-05-21T14:19:33.470Z,95068.35
2019-05-21T14:22:06.367Z,95064.10
2019-05-21T14:24:39.439Z,95067.77
2019-05-21T14:27:12.213Z,95067.88
2019-05-21T14:29:44.960Z,95062.50
2019-05-21T14:32:17.630Z,95070.14
2019-05-21T14:35:00.835Z,95066.27
2019-05-21T14:37:24.464Z,95065.14
2019-05-21T14:39:57.285Z,95067.86
2019-05-21T14:42:29.932Z,95070.00
2019-05-21T14:45:02.821Z,95069.80
2019-05-21T14:47:35.532Z,95073.97
2019-05-21T14:50:09.195Z,95071.70
2019-05-21T14:52:41.894Z,95072.65
2019-05-21T14:55:14.926Z,95067.68
2019-05-21T14:57:47.806Z,95077.41
2019-05-21T15:00:40.413Z,95075.48
2019-05-21T15:03:24.928Z,95074.68
2019-05-21T15:05:47.729Z,95070.57
2019-05-21T15:08:22.548Z,95071.36
2019-05-21T15:10:55.299Z,95077.56
2019-05-21T15:13:28.035Z,95072.05
2019-05-21T15:16:00.739Z,95066.28
2019-05-21T15:18:33.591Z,95074.06
2019-05-21T15:21:23.039Z,95071.02
2019-05-21T15:23:55.864Z,95077.16
2019-05-21T15:26:29.448Z,95066.74
2019-05-21T15:29:02.185Z,95073.28
2019-05-21T15:31:35.917Z,95074.83
2019-05-21T15:34:08.659Z,95072.05
2019-05-21T15:36:42.453Z,95072.68
2019-05-21T15:39:15.161Z,95075.92
2019-05-21T15:41:48.087Z,95078.71
2019-05-21T15:44:20.952Z,95081.11
2019-05-21T15:46:53.739Z,95080.99
2019-05-21T15:49:35.541Z,95084.88
2019-05-21T15:52:01.072Z,95086.38
2019-05-21T15:54:33.935Z,95098.73
2019-05-21T15:57:06.691Z,95090.63
2019-05-21T15:59:39.493Z,95085.27
2019-05-21T16:02:12.262Z,95089.62
2019-05-21T16:04:44.998Z,95092.07
2019-05-21T16:07:17.739Z,95100.16
2019-05-21T16:09:50.625Z,95092.73
2019-05-21T16:12:24.639Z,95084.21
2019-05-21T16:14:57.481Z,95091.86
2019-05-21T16:17:30.213Z,95091.33
2019-05-21T16:20:03.063Z,95095.58
2019-05-21T16:22:35.845Z,95099.09
2019-05-21T16:25:10.006Z,95091.36
2019-05-21T16:27:41.974Z,95082.27
2019-05-21T16:30:16.184Z,95090.93
2019-05-21T16:32:48.861Z,95097.86
2019-05-21T16:35:21.731Z,95097.19
2019-05-21T16:37:54.437Z,95101.14
2019-05-21T16:40:27.201Z,95092.95
2019-05-21T16:42:59.918Z,95091.20
2019-05-21T16:45:32.606Z,95093.10
2019-05-21T16:48:06.269Z,95099.55
2019-05-21T16:50:38.970Z,95090.92
2019-05-21T16:53:12.181Z,95093.48
2019-05-21T16:55:44.973Z,95098.28
2019-05-21T16:58:17.684Z,95089.83
2019-05-21T17:00:50.628Z,95090.60
2019-05-21T17:03:23.429Z,95086.31
2019-05-21T17:05:56.302Z,95085.81
2019-05-21T17:08:28.979Z,95084.66
2019-05-21T17:11:01.820Z,95083.59
2019-05-21T17:13:34.585Z,95087.60
2019-05-21T17:16:07.889Z,95092.09
2019-05-21T17:18:41.826Z,95091.18
2019-05-21T17:21:14.647Z,95097.25
2019-05-21T17:23:47.441Z,95100.84
2019-05-21T17:26:20.440Z,95097.40
2019-05-21T17:28:53.251Z,95096.56
2019-05-21T17:31:26.096Z,95094.23
2019-05-21T17:33:58.886Z,95098.25
2019-05-21T17:36:31.723Z,95102.88
2019-05-21T17:39:05.953Z,95098.17
2019-05-21T17:41:38.675Z,95098.90
2019-05-21T17:44:11.594Z,95107.94
2019-05-21T17:46:44.650Z,95110.95
2019-05-21T17:49:17.392Z,95106.78
2019-05-21T17:51:50.326Z,95114.63
2019-05-21T17:54:23.272Z,95113.70
2019-05-21T17:56:56.041Z,95126.44
2019-05-21T17:59:28.772Z,95118.95
2019-05-21T18:02:02.538Z,95123.27
2019-05-21T18:04:36.374Z,95126.48
2019-05-21T18:07:10.545Z,95139.64
2019-05-21T18:09:43.326Z,95160.94
2019-05-21T18:12:31.179Z,95162.54
2019-05-21T18:14:52.067Z,95158.30
2019-05-21T18:17:27.106Z,95169.58
2019-05-21T18:20:00.487Z,95170.21
2019-05-21T18:22:33.276Z,95176.89
2019-05-21T18:25:07.864Z,95193.10
2019-05-21T18:27:42.661Z,95184.84
2019-05-21T18:30:16.780Z,95190.70
2019-05-21T18:32:51.582Z,95196.45
2019-05-21T18:35:24.300Z,95202.89
2019-05-21T18:37:57.244Z,95198.66
2019-05-21T18:40:30.824Z,95225.64
2019-05-21T18:43:03.480Z,95216.36
2019-05-21T18:45:36.221Z,95225.43
2019-05-21T18:48:09.171Z,95221.11
2019-05-21T18:50:42.013Z,95232.08
2019-05-21T18:53:14.755Z,95233.78
2019-05-21T18:55:47.466Z,95240.59
2019-05-21T18:58:20.212Z,95241.98
2019-05-21T19:00:53.326Z,95239.89
2019-05-21T19:03:26.163Z,95237.00
2019-05-21T19:05:58.939Z,95237.69
2019-05-21T19:08:31.672Z,95245.13
2019-05-21T19:11:04.435Z,95247.56
2019-05-21T19:13:37.206Z,95250.36
2019-05-21T19:16:10.381Z,95257.92
2019-05-21T19:18:43.164Z,95261.44
2019-05-21T19:21:15.960Z,95269.27
2019-05-21T19:23:48.612Z,95270.59
2019-05-21T19:26:21.505Z,95267.45
2019-05-21T19:28:54.289Z,95268.67
2019-05-21T19:31:27.084Z,95274.70
2019-05-21T19:33:59.805Z,95278.52
2019-05-21T19:36:32.660Z,95278.42
2019-05-21T19:39:08.403Z,95283.24
2019-05-21T19:41:41.162Z,95277.50
2019-05-21T19:44:13.953Z,95284.14
2019-05-21T19:46:46.698Z,95287.85
2019-05-21T19:49:19.453Z,95291.97
2019-05-21T19:51:52.246Z,95293.86
2019-05-21T19:54:25.286Z,95299.28
2019-05-21T19:56:58.977Z,95303.73
2019-05-21T19:59:32.043Z,95305.93
2019-05-21T20:02:05.609Z,95312.34
2019-05-21T20:04:39.153Z,95315.28
2019-05-21T20:07:15.287Z,95321.40
2019-05-21T20:09:49.799Z,95327.23
2019-05-21T20:12:23.874Z,95325.92
2019-05-21T20:14:57.128Z,95327.72
2019-05-21T20:17:31.031Z,95326.30
2019-05-21T20:20:04.481Z,95326.00
2019-05-21T20:22:37.258Z,95328.61
2019-05-21T20:25:11.214Z,95326.81
2019-05-21T20:27:45.104Z,95332.82
2019-05-21T20:30:20.542Z,95329.59
2019-05-21T20:32:55.655Z,95336.45
2019-05-21T20:35:30.610Z,95332.04
2019-05-21T20:38:04.534Z,95323.88
2019-05-21T20:40:37.884Z,95326.50
2019-05-21T20:43:12.220Z,95329.23
2019-05-21T20:45:46.960Z,95327.40
2019-05-21T20:48:21.950Z,95325.31
2019-05-21T20:50:55.014Z,95326.62
2019-05-21T20:53:27.791Z,95325.11
2019-05-21T20:56:00.749Z,95323.80
2019-05-21T20:58:33.731Z,95331.14
2019-05-21T21:01:08.754Z,95323.69
2019-05-21T21:03:42.571Z,95329.11
2019-05-21T21:06:15.448Z,95325.68
2019-05-21T21:08:49.078Z,95330.91
2019-05-21T21:11:25.789Z,95323.27
2019-05-21T21:13:58.615Z,95333.14
2019-05-21T21:16:31.802Z,95333.62
2019-05-21T21:19:05.057Z,95334.81
2019-05-21T21:21:38.393Z,95341.27
2019-05-21T21:24:11.206Z,95343.05
2019-05-21T21:26:43.924Z,95348.48
2019-05-21T21:29:16.860Z,95349.58
2019-05-21T21:31:49.812Z,95349.58
2019-05-21T21:34:22.934Z,95346.08
2019-05-21T21:36:56.081Z,95353.01
2019-05-21T21:39:29.101Z,95354.61
2019-05-21T21:42:02.968Z,95366.47
2019-05-21T21:44:35.850Z,95361.94
2019-05-21T21:47:08.714Z,95358.51
2019-05-21T21:49:42.797Z,95364.55
2019-05-21T21:52:17.234Z,95368.86
2019-05-21T21:54:51.970Z,95371.15
2019-05-21T21:57:24.797Z,95355.59
2019-05-21T21:59:58.246Z,95364.01
2019-05-21T22:02:34.870Z,95369.42
2019-05-21T22:05:10.918Z,95369.75
2019-05-21T22:07:43.809Z,95368.13
2019-05-21T22:10:16.624Z,95364.31
2019-05-21T22:12:49.569Z,95368.72
2019-05-21T22:15:22.326Z,95365.81
2019-05-21T22:17:55.239Z,95368.10
2019-05-21T22:20:28.410Z,95364.19
2019-05-21T22:23:01.800Z,95369.12
2019-05-21T22:25:34.539Z,95370.52
2019-05-21T22:28:07.435Z,95365.91
2019-05-21T22:30:40.209Z,95368.23
2019-05-21T22:33:13.565Z,95369.61
2019-05-21T22:35:46.290Z,95368.18
2019-05-21T22:38:19.028Z,95363.14
2019-05-21T22:40:52.062Z,95365.26
2019-05-21T22:43:24.854Z,95367.63
2019-05-21T22:45:58.250Z,95373.82
2019-05-21T22:51:06.251Z,95368.60
2019-05-21T22:53:39.036Z,95370.31
2019-05-21T22:56:11.858Z,95366.90
2019-05-21T22:58:44.608Z,95363.77
2019-05-21T23:01:17.635Z,95367.75
2019-05-21T23:03:50.406Z,95363.05
2019-05-21T23:06:23.735Z,95364.22
2019-05-21T23:08:56.820Z,95364.28
2019-05-21T23:11:30.158Z,95361.34
2019-05-21T23:14:02.907Z,95365.22
2019-05-21T23:16:36.353Z,95361.08
2019-05-21T23:19:11.334Z,95360.65
2019-05-21T23:21:47.158Z,95358.25
2019-05-21T23:24:21.985Z,95358.13
2019-05-21T23:26:56.527Z,95361.45
2019-05-21T23:29:29.355Z,95357.98
2019-05-21T23:32:02.321Z,95359.16
2019-05-21T23:34:35.484Z,95347.69
2019-05-21T23:37:15.790Z,95356.12
2019-05-21T23:39:49.819Z,95354.83
2019-05-21T23:42:29.414Z,95359.47
2019-05-21T23:44:57.869Z,95353.20
2019-05-21T23:47:31.088Z,95350.16
2019-05-21T23:50:04.179Z,95346.88
2019-05-21T23:52:37.369Z,95349.30
2019-05-21T23:55:11.986Z,95351.95
2019-05-21T23:57:44.911Z,95353.14
